createdAt,value
2023-03-30T00:01:15.190Z,98313.94
2023-03-30T00:03:43.408Z,98319.94
2023-03-30T00:06:12.452Z,98318.59
2023-03-30T00:08:39.111Z,98317.34
2023-03-30T00:11:09.201Z,98319.72
2023-03-30T00:13:37.124Z,98318.81
2023-03-30T00:16:06.337Z,98314.25
2023-03-30T00:18:34.458Z,98312.88
2023-03-30T00:21:02.975Z,98317.19
2023-03-30T00:23:32.299Z,98315.31
2023-03-30T00:25:59.954Z,98310.16
2023-03-30T00:28:27.113Z,98308.38
2023-03-30T00:30:54.092Z,98300.88
2023-03-30T00:33:30.410Z,98296.72
2023-03-30T00:36:00.772Z,98303.69
2023-03-30T00:38:27.531Z,98293.91
2023-03-30T00:40:56.585Z,98290.81
2023-03-30T00:43:23.945Z,98280.63
2023-03-30T00:45:51.994Z,98269.97
2023-03-30T00:48:36.873Z,98263.19
2023-03-30T00:51:09.840Z,98260.00
2023-03-30T00:53:47.206Z,98256.50
2023-03-30T00:56:16.583Z,98250.72
2023-03-30T00:58:44.821Z,98245.19
2023-03-30T01:01:14.856Z,98249.16
2023-03-30T01:03:48.301Z,98246.09
2023-03-30T01:06:18.201Z,98245.25
2023-03-30T01:08:45.386Z,98241.41
2023-03-30T01:11:12.042Z,98233.63
2023-03-30T01:13:42.490Z,98239.22
2023-03-30T01:16:09.613Z,98238.59
2023-03-30T01:18:47.730Z,98240.28
2023-03-30T01:21:27.789Z,98238.31
2023-03-30T01:24:34.865Z,98241.94
2023-03-30T01:27:49.860Z,98241.19
2023-03-30T01:30:30.119Z,98243.63
2023-03-30T01:33:21.585Z,98247.69
2023-03-30T01:36:17.903Z,98238.97
2023-03-30T01:38:44.564Z,98229.91
2023-03-30T01:41:24.880Z,98224.81
2023-03-30T01:43:56.886Z,98220.03
2023-03-30T01:46:30.825Z,98228.84
2023-03-30T01:49:11.729Z,98236.88
2023-03-30T01:51:54.274Z,98240.69
2023-03-30T01:54:26.654Z,98249.25
2023-03-30T01:56:57.282Z,98247.19
2023-03-30T01:59:41.864Z,98238.91
2023-03-30T02:02:11.565Z,98246.22
2023-03-30T02:04:42.980Z,98248.47
2023-03-30T02:07:19.373Z,98243.38
2023-03-30T02:09:49.722Z,98242.03
2023-03-30T02:12:18.488Z,98226.03
2023-03-30T02:14:49.371Z,98230.72
2023-03-30T02:17:20.868Z,98233.31
2023-03-30T02:19:47.765Z,98229.47
2023-03-30T02:22:17.849Z,98234.06
2023-03-30T02:24:48.393Z,98235.19
2023-03-30T02:27:16.371Z,98222.47
2023-03-30T02:29:45.631Z,98219.69
2023-03-30T02:32:22.265Z,98236.50
2023-03-30T02:34:52.048Z,98233.47
2023-03-30T02:37:37.000Z,98233.47
2023-03-30T02:40:27.565Z,98233.09
2023-03-30T02:43:21.369Z,98215.19
2023-03-30T02:45:54.090Z,98217.00
2023-03-30T02:48:42.541Z,98222.75
2023-03-30T02:51:27.415Z,98211.53
2023-03-30T02:53:56.942Z,98212.66
2023-03-30T02:56:41.216Z,98211.53
2023-03-30T02:59:17.435Z,98210.31
2023-03-30T03:01:51.186Z,98204.31
2023-03-30T03:04:19.571Z,98195.00
2023-03-30T03:06:46.549Z,98194.41
2023-03-30T03:09:13.189Z,98195.09
2023-03-30T03:11:39.914Z,98193.09
2023-03-30T03:14:07.946Z,98191.75
2023-03-30T03:16:34.782Z,98190.22
2023-03-30T03:19:01.547Z,98200.41
2023-03-30T03:21:28.186Z,98198.41
2023-03-30T03:23:54.824Z,98196.75
2023-03-30T03:26:22.762Z,98202.03
2023-03-30T03:28:49.360Z,98212.06
2023-03-30T03:31:16.115Z,98218.44
2023-03-30T03:33:42.834Z,98218.28
2023-03-30T03:36:12.316Z,98226.19
2023-03-30T03:38:39.085Z,98223.00
2023-03-30T03:41:06.968Z,98225.13
2023-03-30T03:43:33.692Z,98239.38
2023-03-30T03:46:00.486Z,98240.72
2023-03-30T03:48:27.302Z,98245.00
2023-03-30T03:50:58.409Z,98233.09
2023-03-30T03:53:27.676Z,98226.19
2023-03-30T03:55:54.856Z,98226.47
2023-03-30T03:58:21.848Z,98225.78
2023-03-30T04:00:49.092Z,98219.81
2023-03-30T04:03:16.126Z,98218.66
2023-03-30T04:05:43.359Z,98216.16
2023-03-30T04:08:10.831Z,98211.25
2023-03-30T04:10:41.786Z,98226.09
2023-03-30T04:13:08.472Z,98225.66
2023-03-30T04:15:35.460Z,98223.97
2023-03-30T04:18:02.423Z,98205.25
2023-03-30T04:20:30.030Z,98195.63
2023-03-30T04:22:57.069Z,98202.22
2023-03-30T04:25:29.110Z,98195.56
2023-03-30T04:27:56.805Z,98196.69
2023-03-30T04:30:24.114Z,98183.44
2023-03-30T04:33:03.923Z,98183.56
2023-03-30T04:35:32.785Z,98183.66
2023-03-30T04:38:00.232Z,98180.47
2023-03-30T04:40:26.945Z,98174.53
2023-03-30T04:42:54.661Z,98162.75
2023-03-30T04:45:21.299Z,98156.56
2023-03-30T04:47:48.069Z,98155.28
2023-03-30T04:50:14.985Z,98162.88
2023-03-30T04:52:41.728Z,98159.06
2023-03-30T04:55:09.987Z,98133.19
2023-03-30T04:57:36.741Z,98115.59
2023-03-30T05:00:07.880Z,98130.25
2023-03-30T05:02:34.692Z,98113.78
2023-03-30T05:05:01.416Z,98098.00
2023-03-30T05:07:28.090Z,98103.78
2023-03-30T05:09:54.749Z,98100.63
2023-03-30T05:12:21.730Z,98099.78
2023-03-30T05:14:48.415Z,98084.00
2023-03-30T05:17:15.239Z,98085.53
2023-03-30T05:19:42.033Z,98072.56
2023-03-30T05:22:08.731Z,98083.66
2023-03-30T05:24:35.477Z,98100.56
2023-03-30T05:27:02.471Z,98099.03
2023-03-30T05:29:29.215Z,98093.56
2023-03-30T05:31:55.865Z,98099.44
2023-03-30T05:34:22.583Z,98081.69
2023-03-30T05:36:50.074Z,98089.31
2023-03-30T05:39:16.670Z,98090.00
2023-03-30T05:41:43.302Z,98097.13
2023-03-30T05:44:09.933Z,98091.50
2023-03-30T05:46:36.773Z,98096.38
2023-03-30T05:49:03.619Z,98080.13
2023-03-30T05:51:30.379Z,98077.81
2023-03-30T05:53:56.994Z,98075.84
2023-03-30T05:56:25.142Z,98074.38
2023-03-30T05:58:51.884Z,98063.75
2023-03-30T06:01:20.902Z,98061.66
2023-03-30T06:03:48.206Z,98054.69
2023-03-30T06:06:15.017Z,98057.53
2023-03-30T06:08:42.093Z,98057.59
2023-03-30T06:11:08.758Z,98063.78
2023-03-30T06:13:35.520Z,98075.59
2023-03-30T06:16:03.644Z,98061.84
2023-03-30T06:18:30.863Z,98063.03
2023-03-30T06:20:57.960Z,98063.22
2023-03-30T06:23:24.772Z,98065.59
2023-03-30T06:25:55.302Z,98054.97
2023-03-30T06:28:22.793Z,98069.28
2023-03-30T06:30:49.600Z,98058.00
2023-03-30T06:33:17.725Z,98063.00
2023-03-30T06:35:52.591Z,98080.63
2023-03-30T06:38:23.340Z,98076.78
2023-03-30T06:40:51.417Z,98087.56
2023-03-30T06:43:24.920Z,98080.28
2023-03-30T06:45:57.061Z,98084.91
2023-03-30T06:48:24.675Z,98082.78
2023-03-30T06:50:52.215Z,98094.56
2023-03-30T06:53:20.188Z,98089.59
2023-03-30T06:55:55.220Z,98095.06
2023-03-30T06:58:22.748Z,98093.38
2023-03-30T07:00:49.535Z,98085.91
2023-03-30T07:03:19.085Z,98102.84
2023-03-30T07:05:50.034Z,98114.81
2023-03-30T07:08:17.465Z,98113.16
2023-03-30T07:10:44.336Z,98104.16
2023-03-30T07:13:10.993Z,98100.88
2023-03-30T07:15:37.675Z,98102.69
2023-03-30T07:18:04.762Z,98104.06
2023-03-30T07:20:31.686Z,98104.34
2023-03-30T07:22:58.292Z,98093.56
2023-03-30T07:25:24.959Z,98103.22
2023-03-30T07:27:51.542Z,98112.53
2023-03-30T07:30:22.244Z,98123.66
2023-03-30T07:32:51.047Z,98119.00
2023-03-30T07:35:18.516Z,98118.19
2023-03-30T07:37:45.747Z,98126.81
2023-03-30T07:40:13.100Z,98127.16
2023-03-30T07:42:41.037Z,98130.94
2023-03-30T07:45:08.225Z,98131.78
2023-03-30T07:47:34.927Z,98128.28
2023-03-30T07:50:01.561Z,98123.16
2023-03-30T07:52:28.251Z,98116.16
2023-03-30T07:54:55.727Z,98110.00
2023-03-30T07:57:22.843Z,98090.53
2023-03-30T07:59:49.604Z,98090.03
2023-03-30T08:02:16.831Z,98091.56
2023-03-30T08:04:44.618Z,98093.25
2023-03-30T08:07:12.405Z,98103.72
2023-03-30T08:09:39.095Z,98097.56
2023-03-30T08:12:06.885Z,98125.66
2023-03-30T08:14:33.622Z,98126.69
2023-03-30T08:17:00.738Z,98129.84
2023-03-30T08:19:28.633Z,98113.53
2023-03-30T08:21:57.013Z,98127.53
2023-03-30T08:24:23.780Z,98133.19
2023-03-30T08:26:50.445Z,98133.22
2023-03-30T08:29:17.168Z,98124.72
2023-03-30T08:31:43.955Z,98127.69
2023-03-30T08:34:11.599Z,98126.25
2023-03-30T08:36:38.310Z,98122.06
2023-03-30T08:39:05.218Z,98095.97
2023-03-30T08:42:07.255Z,98100.13
2023-03-30T08:44:39.679Z,98105.78
2023-03-30T08:47:12.482Z,98108.97
2023-03-30T08:49:50.614Z,98108.97
2023-03-30T08:52:24.676Z,98110.63
2023-03-30T08:54:52.327Z,98112.28
2023-03-30T08:57:51.533Z,98101.16
2023-03-30T09:00:37.849Z,98116.97
2023-03-30T09:03:14.458Z,98121.97
2023-03-30T09:06:07.497Z,98113.63
2023-03-30T09:08:34.502Z,98104.66
2023-03-30T09:11:04.843Z,98119.63
2023-03-30T09:13:34.339Z,98126.59
2023-03-30T09:16:19.800Z,98117.13
2023-03-30T09:18:53.201Z,98127.97
2023-03-30T09:21:23.161Z,98113.97
2023-03-30T09:23:51.015Z,98123.28
2023-03-30T09:26:41.829Z,98103.97
2023-03-30T09:29:19.040Z,98102.81
2023-03-30T09:31:59.557Z,98097.81
2023-03-30T09:34:40.933Z,98090.13
2023-03-30T09:37:18.824Z,98092.63
2023-03-30T09:42:37.922Z,98082.63
2023-03-30T09:45:28.210Z,98098.13
2023-03-30T09:47:55.184Z,98099.25
2023-03-30T09:50:26.596Z,98106.78
2023-03-30T09:53:01.677Z,98106.28
2023-03-30T09:55:32.937Z,98104.75
2023-03-30T09:58:11.833Z,98086.59
2023-03-30T10:00:39.406Z,98086.38
2023-03-30T10:03:07.987Z,98076.28
2023-03-30T10:05:36.684Z,98080.63
2023-03-30T10:08:27.700Z,98079.69
2023-03-30T10:10:56.638Z,98081.78
2023-03-30T10:13:35.460Z,98071.81
2023-03-30T10:16:07.461Z,98079.31
2023-03-30T10:18:42.181Z,98069.84
2023-03-30T10:21:17.720Z,98070.25
2023-03-30T10:23:47.263Z,98087.00
2023-03-30T10:26:20.585Z,98079.81
2023-03-30T10:29:03.201Z,98064.38
2023-03-30T10:31:30.534Z,98059.34
2023-03-30T10:33:59.608Z,98058.50
2023-03-30T10:36:32.425Z,98078.44
2023-03-30T10:39:13.401Z,98064.66
2023-03-30T10:41:42.041Z,98062.38
2023-03-30T10:44:31.095Z,98055.66
2023-03-30T10:47:07.509Z,98055.78
2023-03-30T10:49:39.943Z,98060.00
2023-03-30T10:52:48.806Z,98059.81
2023-03-30T10:55:34.744Z,98052.09
2023-03-30T10:58:44.649Z,98049.44
2023-03-30T11:01:32.782Z,98050.72
2023-03-30T11:04:20.243Z,98037.38
2023-03-30T11:06:53.135Z,98024.47
2023-03-30T11:09:28.164Z,98016.13
2023-03-30T11:12:03.246Z,98022.75
2023-03-30T11:14:44.919Z,98027.09
2023-03-30T11:17:20.898Z,98018.06
2023-03-30T11:19:55.438Z,98017.34
2023-03-30T11:22:36.808Z,98029.38
2023-03-30T11:25:17.106Z,98008.13
2023-03-30T11:27:56.344Z,98006.03
2023-03-30T11:30:34.146Z,98023.91
2023-03-30T11:33:26.616Z,98028.22
2023-03-30T11:36:05.389Z,98030.16
2023-03-30T11:39:01.872Z,98014.75
2023-03-30T11:41:38.732Z,98022.47
2023-03-30T11:44:06.143Z,98026.16
2023-03-30T11:46:41.115Z,98003.84
2023-03-30T11:49:34.523Z,98007.81
2023-03-30T11:52:08.026Z,98000.00
2023-03-30T11:55:04.473Z,97989.44
2023-03-30T11:57:34.773Z,97994.06
2023-03-30T12:00:22.843Z,97991.72
2023-03-30T12:03:02.129Z,97982.53
2023-03-30T12:05:35.562Z,97979.69
2023-03-30T12:08:17.557Z,97986.75
2023-03-30T12:10:51.661Z,98011.84
2023-03-30T12:13:19.940Z,98002.81
2023-03-30T12:15:57.471Z,98001.63
2023-03-30T12:18:39.646Z,97988.63
2023-03-30T12:21:25.890Z,97976.09
2023-03-30T12:24:20.770Z,97983.25
2023-03-30T12:27:03.860Z,97975.81
2023-03-30T12:32:29.205Z,98040.00
2023-03-30T12:34:57.145Z,98142.94
2023-03-30T12:37:35.621Z,98114.78
2023-03-30T12:40:14.631Z,98126.69
2023-03-30T12:42:55.934Z,98145.13
2023-03-30T12:45:32.260Z,98144.84
2023-03-30T12:48:24.451Z,98134.16
2023-03-30T12:51:16.009Z,98157.78
2023-03-30T12:54:19.212Z,98147.66
2023-03-30T12:56:54.779Z,98140.66
2023-03-30T12:59:49.019Z,98138.00
2023-03-30T13:02:37.360Z,98142.06
2023-03-30T13:05:16.930Z,98138.94
2023-03-30T13:07:44.091Z,98132.97
2023-03-30T13:10:29.507Z,98130.41
2023-03-30T13:12:58.124Z,98127.84
2023-03-30T13:15:39.783Z,98129.53
2023-03-30T13:18:09.396Z,98131.94
2023-03-30T13:20:56.353Z,98140.53
2023-03-30T13:23:22.934Z,98148.84
2023-03-30T13:26:32.352Z,98154.00
2023-03-30T13:29:11.644Z,98151.13
2023-03-30T13:32:06.197Z,98143.78
2023-03-30T13:34:46.644Z,98134.63
2023-03-30T13:38:04.290Z,98139.25
2023-03-30T13:40:43.835Z,98129.38
2023-03-30T13:43:38.994Z,98123.91
2023-03-30T13:46:17.013Z,98119.91
2023-03-30T13:49:02.218Z,98124.22
2023-03-30T13:51:30.161Z,98138.94
2023-03-30T13:54:01.802Z,98128.28
2023-03-30T13:56:33.473Z,98127.78
2023-03-30T13:59:07.614Z,98129.22
2023-03-30T14:01:35.678Z,98133.78
2023-03-30T14:04:04.050Z,98139.09
2023-03-30T14:06:34.474Z,98123.19
2023-03-30T14:09:05.509Z,98138.97
2023-03-30T14:11:45.573Z,98144.75
2023-03-30T14:14:36.994Z,98144.28
2023-03-30T14:17:14.664Z,98137.50
2023-03-30T14:19:56.684Z,98140.50
2023-03-30T14:22:28.057Z,98140.69
2023-03-30T14:25:02.024Z,98141.50
2023-03-30T14:27:39.344Z,98139.91
2023-03-30T14:30:29.263Z,98131.75
2023-03-30T14:33:10.414Z,98136.41
2023-03-30T14:35:53.575Z,98133.53
2023-03-30T14:38:30.406Z,98147.34
2023-03-30T14:40:58.275Z,98133.06
2023-03-30T14:43:31.461Z,98127.09
2023-03-30T14:46:03.332Z,98130.13
2023-03-30T14:48:33.498Z,98116.63
2023-03-30T14:51:07.871Z,98123.28
2023-03-30T14:53:35.605Z,98115.56
2023-03-30T14:56:03.865Z,98119.63
2023-03-30T14:58:32.685Z,98119.41
2023-03-30T15:01:03.652Z,98115.75
2023-03-30T15:03:34.800Z,98120.03
2023-03-30T15:06:07.039Z,98127.31
2023-03-30T15:08:39.476Z,98123.56
2023-03-30T15:11:13.317Z,98122.72
2023-03-30T15:13:52.797Z,98125.03
2023-03-30T15:16:26.293Z,98127.59
2023-03-30T15:18:55.714Z,98116.31
2023-03-30T15:21:22.427Z,98109.31
2023-03-30T15:23:51.044Z,98110.22
2023-03-30T15:26:18.685Z,98107.28
2023-03-30T15:28:51.119Z,98105.69
2023-03-30T15:31:19.238Z,98098.72
2023-03-30T15:33:47.212Z,98103.66
2023-03-30T15:36:26.337Z,98098.97
2023-03-30T15:38:58.765Z,98102.44
2023-03-30T15:41:47.643Z,98092.31
2023-03-30T15:44:21.911Z,98091.72
2023-03-30T15:46:49.988Z,98091.63
2023-03-30T15:49:20.462Z,98094.91
2023-03-30T15:51:51.909Z,98101.41
2023-03-30T15:54:26.955Z,98096.94
2023-03-30T15:56:59.609Z,98098.19
2023-03-30T15:59:32.886Z,98103.31
2023-03-30T16:02:15.147Z,98108.47
2023-03-30T16:04:42.153Z,98102.53
2023-03-30T16:07:23.199Z,98104.63
2023-03-30T16:09:49.976Z,98111.28
2023-03-30T16:12:23.835Z,98111.13
2023-03-30T16:14:51.148Z,98116.66
2023-03-30T16:17:18.717Z,98116.31
2023-03-30T16:19:45.829Z,98120.50
2023-03-30T16:22:14.203Z,98113.97
2023-03-30T16:24:42.158Z,98128.31
2023-03-30T16:27:11.477Z,98132.97
2023-03-30T16:29:38.171Z,98119.97
2023-03-30T16:32:05.155Z,98113.31
2023-03-30T16:34:31.882Z,98118.47
2023-03-30T16:36:58.527Z,98109.16
2023-03-30T16:39:27.877Z,98122.63
2023-03-30T16:41:55.595Z,98129.09
2023-03-30T16:44:24.073Z,98136.25
2023-03-30T16:46:51.708Z,98133.59
2023-03-30T16:49:26.129Z,98147.56
2023-03-30T16:51:57.544Z,98153.22
2023-03-30T16:54:31.945Z,98157.81
2023-03-30T16:57:00.662Z,98159.81
2023-03-30T16:59:30.276Z,98156.31
2023-03-30T17:01:57.444Z,98148.44
2023-03-30T17:04:24.149Z,98165.88
2023-03-30T17:06:51.102Z,98164.22
2023-03-30T17:09:19.544Z,98164.03
2023-03-30T17:11:47.908Z,98172.94
2023-03-30T17:14:15.494Z,98169.63
2023-03-30T17:16:42.861Z,98168.22
2023-03-30T17:19:13.889Z,98177.22
2023-03-30T17:21:42.951Z,98172.88
2023-03-30T17:24:15.119Z,98173.16
2023-03-30T17:26:42.158Z,98174.56
2023-03-30T17:29:09.711Z,98176.34
2023-03-30T17:31:38.345Z,98179.63
2023-03-30T17:34:06.761Z,98185.91
2023-03-30T17:36:33.468Z,98171.22
2023-03-30T17:39:00.102Z,98176.94
2023-03-30T17:41:26.888Z,98173.78
2023-03-30T17:43:53.642Z,98175.59
2023-03-30T17:46:20.780Z,98161.94
2023-03-30T17:48:48.317Z,98154.91
2023-03-30T17:51:14.939Z,98158.19
2023-03-30T17:53:41.679Z,98160.28
2023-03-30T17:56:12.556Z,98161.06
2023-03-30T17:58:39.273Z,98163.03
2023-03-30T18:01:09.096Z,98168.84
2023-03-30T18:03:38.606Z,98170.78
2023-03-30T18:06:05.941Z,98179.34
2023-03-30T18:08:32.769Z,98183.81
2023-03-30T18:11:00.770Z,98184.31
2023-03-30T18:13:29.458Z,98188.59
2023-03-30T18:15:58.630Z,98193.34
2023-03-30T18:18:29.455Z,98196.75
2023-03-30T18:21:02.513Z,98194.78
2023-03-30T18:23:30.643Z,98201.22
2023-03-30T18:25:57.668Z,98201.66
2023-03-30T18:28:26.166Z,98194.53
2023-03-30T18:30:55.505Z,98204.31
2023-03-30T18:33:22.423Z,98201.28
2023-03-30T18:35:51.110Z,98198.78
2023-03-30T18:38:20.776Z,98202.13
2023-03-30T18:40:50.129Z,98215.13
2023-03-30T18:43:16.958Z,98215.13
2023-03-30T18:45:46.293Z,98231.03
2023-03-30T18:48:14.630Z,98232.63
2023-03-30T18:50:46.383Z,98236.25
2023-03-30T18:53:16.432Z,98248.84
2023-03-30T18:55:46.000Z,98248.03
2023-03-30T18:58:24.383Z,98250.00
2023-03-30T19:00:52.505Z,98249.31
2023-03-30T19:03:20.293Z,98248.34
2023-03-30T19:05:48.234Z,98244.72
2023-03-30T19:08:19.754Z,98249.75
2023-03-30T19:10:48.954Z,98252.41
2023-03-30T19:13:18.031Z,98253.38
2023-03-30T19:15:45.817Z,98247.41
2023-03-30T19:18:13.922Z,98258.41
2023-03-30T19:20:41.793Z,98253.66
2023-03-30T19:23:11.831Z,98256.47
2023-03-30T19:25:38.903Z,98256.19
2023-03-30T19:28:06.459Z,98263.44
2023-03-30T19:30:36.678Z,98257.75
2023-03-30T19:33:08.434Z,98260.53
2023-03-30T19:35:35.812Z,98262.66
2023-03-30T19:38:02.537Z,98273.38
2023-03-30T19:40:29.183Z,98277.72
2023-03-30T19:42:55.909Z,98286.63
2023-03-30T19:45:23.663Z,98289.97
2023-03-30T19:47:51.538Z,98296.50
2023-03-30T19:50:20.009Z,98298.72
2023-03-30T19:52:50.154Z,98300.97
2023-03-30T19:55:18.847Z,98292.50
2023-03-30T19:57:46.081Z,98294.16
2023-03-30T20:00:16.001Z,98275.50
2023-03-30T20:02:45.531Z,98276.91
2023-03-30T20:05:13.042Z,98274.13
2023-03-30T20:07:40.978Z,98269.66
2023-03-30T20:10:10.510Z,98271.78
2023-03-30T20:12:37.505Z,98268.56
2023-03-30T20:15:06.156Z,98256.03
2023-03-30T20:17:34.210Z,98259.78
2023-03-30T20:20:07.206Z,98252.81
2023-03-30T20:22:36.254Z,98252.97
2023-03-30T20:25:07.582Z,98246.25
2023-03-30T20:27:35.588Z,98247.94
2023-03-30T20:30:03.082Z,98248.25
2023-03-30T20:32:29.707Z,98236.94
2023-03-30T20:34:56.426Z,98234.56
2023-03-30T20:37:23.234Z,98233.75
2023-03-30T20:39:50.604Z,98229.03
2023-03-30T20:42:25.891Z,98217.06
2023-03-30T20:44:53.611Z,98219.84
2023-03-30T20:47:23.450Z,98215.53
2023-03-30T20:49:50.340Z,98219.84
2023-03-30T20:52:17.121Z,98224.84
2023-03-30T20:54:44.799Z,98220.13
2023-03-30T20:57:12.156Z,98216.78
2023-03-30T20:59:39.621Z,98207.03
2023-03-30T21:02:07.000Z,98216.50
2023-03-30T21:04:34.176Z,98219.00
2023-03-30T21:07:00.957Z,98216.78
2023-03-30T21:09:27.910Z,98215.25
2023-03-30T21:11:54.539Z,98220.53
2023-03-30T21:14:21.304Z,98211.75
2023-03-30T21:16:47.944Z,98214.69
2023-03-30T21:19:14.724Z,98209.81
2023-03-30T21:21:41.522Z,98208.84
2023-03-30T21:24:10.358Z,98210.09
2023-03-30T21:26:37.945Z,98215.09
2023-03-30T21:29:05.717Z,98206.19
2023-03-30T21:31:32.546Z,98198.25
2023-03-30T21:34:00.406Z,98187.41
2023-03-30T21:36:27.424Z,98182.00
2023-03-30T21:38:56.222Z,98180.16
2023-03-30T21:41:24.348Z,98188.09
2023-03-30T21:43:51.043Z,98191.16
2023-03-30T21:46:23.206Z,98194.78
2023-03-30T21:48:53.740Z,98203.13
2023-03-30T21:51:27.443Z,98189.78
2023-03-30T21:53:55.704Z,98189.47
2023-03-30T21:56:24.666Z,98182.25
2023-03-30T21:58:51.822Z,98182.81
2023-03-30T22:01:19.984Z,98177.66
2023-03-30T22:03:46.756Z,98176.28
2023-03-30T22:06:16.337Z,98178.22
2023-03-30T22:08:45.146Z,98176.69
2023-03-30T22:11:17.497Z,98177.50
2023-03-30T22:13:46.111Z,98171.13
2023-03-30T22:16:22.397Z,98168.19
2023-03-30T22:18:50.354Z,98173.91
2023-03-30T22:21:34.612Z,98165.66
2023-03-30T22:24:06.734Z,98157.59
2023-03-30T22:26:34.878Z,98158.88
2023-03-30T22:29:01.549Z,98153.56
2023-03-30T22:31:31.110Z,98146.59
2023-03-30T22:33:57.727Z,98146.03
2023-03-30T22:36:26.773Z,98142.97
2023-03-30T22:38:53.419Z,98141.03
2023-03-30T22:41:24.010Z,98132.66
2023-03-30T22:43:52.144Z,98129.88
2023-03-30T22:46:18.899Z,98134.09
2023-03-30T22:48:45.653Z,98137.13
2023-03-30T22:51:26.387Z,98143.56
2023-03-30T22:53:57.964Z,98149.81
2023-03-30T22:56:24.827Z,98136.69
2023-03-30T22:58:51.690Z,98132.06
2023-03-30T23:01:19.665Z,98126.50
2023-03-30T23:03:47.657Z,98116.50
2023-03-30T23:06:14.461Z,98116.78
2023-03-30T23:08:41.092Z,98111.34
2023-03-30T23:11:08.377Z,98115.28
2023-03-30T23:13:38.352Z,98110.28
2023-03-30T23:16:06.777Z,98106.63
2023-03-30T23:18:34.507Z,98101.19
2023-03-30T23:21:06.158Z,98099.84
2023-03-30T23:23:35.377Z,98097.59
2023-03-30T23:26:03.059Z,98095.94
2023-03-30T23:28:30.605Z,98098.72
2023-03-30T23:30:57.938Z,98088.00
2023-03-30T23:33:24.972Z,98091.91
2023-03-30T23:35:53.347Z,98090.66
2023-03-30T23:38:20.165Z,98085.63
2023-03-30T23:40:46.990Z,98083.13
2023-03-30T23:43:13.686Z,98090.34
2023-03-30T23:45:43.227Z,98083.41
2023-03-30T23:48:09.870Z,98077.53
2023-03-30T23:50:37.094Z,98066.28
2023-03-30T23:53:03.924Z,98073.78
2023-03-30T23:55:31.079Z,98070.34
2023-03-30T23:57:57.636Z,98058.91
